sensor_id;sensor_type;location;lat;lon;timestamp;pressure;altitude;pressure_sealevel;temperature;humidity
25759;BME280;13604;52.496;13.456;2022-10-16T00:00:39;100824.53;;;13.33;100.00
25759;BME280;13604;52.496;13.456;2022-10-16T00:03:05;100818.13;;;13.37;100.00
25759;BME280;13604;52.496;13.456;2022-10-16T00:05:31;100832.94;;;13.49;100.00
25759;BME280;13604;52.496;13.456;2022-10-16T00:07:57;100833.34;;;13.56;100.00
25759;BME280;13604;52.496;13.456;2022-10-16T00:10:22;100836.81;;;13.57;100.00
25759;BME280;13604;52.496;13.456;2022-10-16T00:12:47;100841.38;;;13.66;100.00
25759;BME280;13604;52.496;13.456;2022-10-16T00:15:13;100839.59;;;13.66;100.00
25759;BME280;13604;52.496;13.456;2022-10-16T00:17:38;100847.09;;;13.71;100.00
25759;BME280;13604;52.496;13.456;2022-10-16T00:20:04;100841.53;;;13.75;100.00
25759;BME280;13604;52.496;13.456;2022-10-16T00:22:30;100840.13;;;13.82;100.00
25759;BME280;13604;52.496;13.456;2022-10-16T00:24:55;100840.88;;;13.84;100.00
25759;BME280;13604;52.496;13.456;2022-10-16T00:27:21;100837.81;;;13.91;100.00
25759;BME280;13604;52.496;13.456;2022-10-16T00:29:50;100849.59;;;13.96;100.00
25759;BME280;13604;52.496;13.456;2022-10-16T00:32:16;100853.78;;;13.99;100.00
25759;BME280;13604;52.496;13.456;2022-10-16T00:34:41;100848.19;;;14.03;100.00
25759;BME280;13604;52.496;13.456;2022-10-16T00:37:06;100847.66;;;14.11;100.00
25759;BME280;13604;52.496;13.456;2022-10-16T00:39:32;100863.94;;;14.14;100.00
25759;BME280;13604;52.496;13.456;2022-10-16T00:41:57;100861.72;;;14.21;100.00
25759;BME280;13604;52.496;13.456;2022-10-16T00:47:11;100859.59;;;14.26;100.00
25759;BME280;13604;52.496;13.456;2022-10-16T00:49:38;100859.47;;;14.28;100.00
25759;BME280;13604;52.496;13.456;2022-10-16T00:52:03;100847.44;;;14.25;100.00
25759;BME280;13604;52.496;13.456;2022-10-16T00:54:30;100860.09;;;14.31;100.00
25759;BME280;13604;52.496;13.456;2022-10-16T00:57:00;100851.88;;;14.25;100.00
25759;BME280;13604;52.496;13.456;2022-10-16T00:59:29;100870.69;;;14.30;100.00
25759;BME280;13604;52.496;13.456;2022-10-16T01:01:56;100864.50;;;14.31;100.00
25759;BME280;13604;52.496;13.456;2022-10-16T01:04:23;100872.81;;;14.25;100.00
25759;BME280;13604;52.496;13.456;2022-10-16T01:09:47;100876.97;;;14.27;100.00
25759;BME280;13604;52.496;13.456;2022-10-16T01:12:29;100866.38;;;14.29;100.00
25759;BME280;13604;52.496;13.456;2022-10-16T01:15:06;100861.50;;;14.24;100.00
25759;BME280;13604;52.496;13.456;2022-10-16T01:17:49;100864.13;;;14.24;100.00
25759;BME280;13604;52.496;13.456;2022-10-16T01:20:29;100875.56;;;14.23;100.00
25759;BME280;13604;52.496;13.456;2022-10-16T01:23:20;100873.88;;;14.22;100.00
25759;BME280;13604;52.496;13.456;2022-10-16T01:26:10;100878.72;;;14.15;100.00
25759;BME280;13604;52.496;13.456;2022-10-16T01:28:38;100886.00;;;14.12;100.00
25759;BME280;13604;52.496;13.456;2022-10-16T01:31:04;100880.13;;;14.08;100.00
25759;BME280;13604;52.496;13.456;2022-10-16T01:33:37;100888.94;;;14.07;100.00
25759;BME280;13604;52.496;13.456;2022-10-16T01:36:18;100879.03;;;14.00;100.00
25759;BME280;13604;52.496;13.456;2022-10-16T01:38:47;100889.25;;;14.03;100.00
25759;BME280;13604;52.496;13.456;2022-10-16T01:41:19;100889.38;;;14.01;100.00
25759;BME280;13604;52.496;13.456;2022-10-16T01:43:50;100892.00;;;14.01;100.00
25759;BME280;13604;52.496;13.456;2022-10-16T01:46:19;100895.56;;;14.00;100.00
25759;BME280;13604;52.496;13.456;2022-10-16T01:48:46;100892.34;;;13.97;100.00
25759;BME280;13604;52.496;13.456;2022-10-16T01:51:15;100901.88;;;13.98;100.00
25759;BME280;13604;52.496;13.456;2022-10-16T01:53:45;100897.47;;;13.98;100.00
25759;BME280;13604;52.496;13.456;2022-10-16T01:56:12;100890.22;;;14.02;100.00
25759;BME280;13604;52.496;13.456;2022-10-16T01:58:45;100898.91;;;14.02;100.00
25759;BME280;13604;52.496;13.456;2022-10-16T02:01:15;100908.31;;;14.05;100.00
25759;BME280;13604;52.496;13.456;2022-10-16T02:03:43;100906.41;;;14.07;100.00
25759;BME280;13604;52.496;13.456;2022-10-16T02:06:11;100908.00;;;14.09;100.00
25759;BME280;13604;52.496;13.456;2022-10-16T02:08:37;100903.81;;;14.07;100.00
25759;BME280;13604;52.496;13.456;2022-10-16T02:11:04;100912.44;;;14.20;100.00
25759;BME280;13604;52.496;13.456;2022-10-16T02:13:42;100906.38;;;14.19;100.00
25759;BME280;13604;52.496;13.456;2022-10-16T02:16:11;100925.47;;;14.33;100.00
25759;BME280;13604;52.496;13.456;2022-10-16T02:18:37;100922.31;;;14.40;100.00
25759;BME280;13604;52.496;13.456;2022-10-16T02:21:30;100916.63;;;14.46;100.00
25759;BME280;13604;52.496;13.456;2022-10-16T02:29:08;100931.63;;;14.44;100.00
25759;BME280;13604;52.496;13.456;2022-10-16T02:31:39;100926.38;;;14.44;100.00
25759;BME280;13604;52.496;13.456;2022-10-16T02:34:06;100921.16;;;14.44;100.00
25759;BME280;13604;52.496;13.456;2022-10-16T02:36:34;100924.25;;;14.49;100.00
25759;BME280;13604;52.496;13.456;2022-10-16T02:39:02;100916.63;;;14.46;100.00
25759;BME280;13604;52.496;13.456;2022-10-16T02:41:29;100922.56;;;14.48;100.00
25759;BME280;13604;52.496;13.456;2022-10-16T02:43:54;100928.78;;;14.58;100.00
25759;BME280;13604;52.496;13.456;2022-10-16T02:46:20;100932.13;;;14.61;100.00
25759;BME280;13604;52.496;13.456;2022-10-16T02:48:46;100935.72;;;14.60;100.00
25759;BME280;13604;52.496;13.456;2022-10-16T02:51:11;100921.41;;;14.52;100.00
25759;BME280;13604;52.496;13.456;2022-10-16T02:53:36;100933.91;;;14.60;100.00
25759;BME280;13604;52.496;13.456;2022-10-16T02:56:01;100927.94;;;14.58;100.00
25759;BME280;13604;52.496;13.456;2022-10-16T02:58:27;100937.75;;;14.56;100.00
25759;BME280;13604;52.496;13.456;2022-10-16T03:00:52;100941.41;;;14.53;100.00
25759;BME280;13604;52.496;13.456;2022-10-16T03:03:17;100929.72;;;14.46;100.00
25759;BME280;13604;52.496;13.456;2022-10-16T03:05:43;100932.34;;;14.46;100.00
25759;BME280;13604;52.496;13.456;2022-10-16T03:08:11;100923.44;;;14.36;100.00
25759;BME280;13604;52.496;13.456;2022-10-16T03:10:36;100928.09;;;14.33;100.00
25759;BME280;13604;52.496;13.456;2022-10-16T03:13:01;100940.56;;;14.29;100.00
25759;BME280;13604;52.496;13.456;2022-10-16T03:15:27;100950.09;;;14.30;100.00
25759;BME280;13604;52.496;13.456;2022-10-16T03:17:53;100955.66;;;14.26;100.00
25759;BME280;13604;52.496;13.456;2022-10-16T03:20:19;100952.47;;;14.22;100.00
25759;BME280;13604;52.496;13.456;2022-10-16T03:22:44;100952.88;;;14.16;100.00
25759;BME280;13604;52.496;13.456;2022-10-16T03:25:09;100953.00;;;14.14;100.00
25759;BME280;13604;52.496;13.456;2022-10-16T03:27:35;100943.59;;;14.12;100.00
25759;BME280;13604;52.496;13.456;2022-10-16T03:30:00;100956.69;;;14.12;100.00
25759;BME280;13604;52.496;13.456;2022-10-16T03:32:25;100961.19;;;14.10;100.00
25759;BME280;13604;52.496;13.456;2022-10-16T03:34:50;100954.06;;;14.12;100.00
25759;BME280;13604;52.496;13.456;2022-10-16T03:37:16;100973.78;;;14.05;100.00
25759;BME280;13604;52.496;13.456;2022-10-16T03:39:41;100977.34;;;14.04;100.00
25759;BME280;13604;52.496;13.456;2022-10-16T03:42:06;100981.47;;;13.95;100.00
25759;BME280;13604;52.496;13.456;2022-10-16T03:44:32;100992.97;;;13.93;100.00
25759;BME280;13604;52.496;13.456;2022-10-16T03:46:57;100985.84;;;13.95;100.00
25759;BME280;13604;52.496;13.456;2022-10-16T03:49:22;100979.28;;;13.89;100.00
25759;BME280;13604;52.496;13.456;2022-10-16T03:51:47;100993.22;;;13.90;100.00
25759;BME280;13604;52.496;13.456;2022-10-16T03:54:13;100996.16;;;13.85;100.00
25759;BME280;13604;52.496;13.456;2022-10-16T03:56:38;101001.19;;;13.88;100.00
25759;BME280;13604;52.496;13.456;2022-10-16T03:59:04;101000.56;;;13.84;100.00
25759;BME280;13604;52.496;13.456;2022-10-16T04:01:29;101009.59;;;13.80;100.00
25759;BME280;13604;52.496;13.456;2022-10-16T04:03:54;101005.78;;;13.84;100.00
25759;BME280;13604;52.496;13.456;2022-10-16T04:06:20;101004.34;;;13.80;100.00
25759;BME280;13604;52.496;13.456;2022-10-16T04:08:45;101006.22;;;13.78;100.00
25759;BME280;13604;52.496;13.456;2022-10-16T04:11:10;101017.75;;;13.76;100.00
25759;BME280;13604;52.496;13.456;2022-10-16T04:13:36;101015.88;;;13.78;100.00
25759;BME280;13604;52.496;13.456;2022-10-16T04:16:01;101022.78;;;13.79;100.00
25759;BME280;13604;52.496;13.456;2022-10-16T04:18:27;101012.41;;;13.77;100.00
25759;BME280;13604;52.496;13.456;2022-10-16T04:20:53;100998.78;;;13.72;100.00
25759;BME280;13604;52.496;13.456;2022-10-16T04:23:18;101025.50;;;13.77;100.00
25759;BME280;13604;52.496;13.456;2022-10-16T04:25:44;101012.81;;;13.71;100.00
25759;BME280;13604;52.496;13.456;2022-10-16T04:28:09;101016.16;;;13.73;100.00
25759;BME280;13604;52.496;13.456;2022-10-16T04:30:34;101014.50;;;13.72;100.00
25759;BME280;13604;52.496;13.456;2022-10-16T04:33:02;101021.59;;;13.70;100.00
25759;BME280;13604;52.496;13.456;2022-10-16T04:35:30;101003.00;;;13.62;100.00
25759;BME280;13604;52.496;13.456;2022-10-16T04:38:00;101008.56;;;13.58;100.00
25759;BME280;13604;52.496;13.456;2022-10-16T04:40:25;101007.94;;;13.54;100.00
25759;BME280;13604;52.496;13.456;2022-10-16T04:42:50;100993.19;;;13.53;100.00
25759;BME280;13604;52.496;13.456;2022-10-16T04:45:15;100985.03;;;13.45;100.00
25759;BME280;13604;52.496;13.456;2022-10-16T04:47:41;100991.31;;;13.42;100.00
25759;BME280;13604;52.496;13.456;2022-10-16T04:50:06;100991.84;;;13.35;100.00
25759;BME280;13604;52.496;13.456;2022-10-16T04:52:32;101001.66;;;13.31;100.00
25759;BME280;13604;52.496;13.456;2022-10-16T04:54:58;100999.34;;;13.27;100.00
25759;BME280;13604;52.496;13.456;2022-10-16T04:57:26;100994.34;;;13.24;100.00
25759;BME280;13604;52.496;13.456;2022-10-16T04:59:52;100999.03;;;13.19;100.00
25759;BME280;13604;52.496;13.456;2022-10-16T05:02:17;100998.81;;;13.09;100.00
25759;BME280;13604;52.496;13.456;2022-10-16T05:04:42;101019.63;;;13.10;100.00
25759;BME280;13604;52.496;13.456;2022-10-16T05:07:08;101024.31;;;13.05;100.00
25759;BME280;13604;52.496;13.456;2022-10-16T05:09:33;101022.31;;;12.96;100.00
25759;BME280;13604;52.496;13.456;2022-10-16T05:11:58;101034.03;;;12.91;100.00
25759;BME280;13604;52.496;13.456;2022-10-16T05:14:24;101036.75;;;12.89;100.00
25759;BME280;13604;52.496;13.456;2022-10-16T05:16:49;101047.00;;;12.92;100.00
25759;BME280;13604;52.496;13.456;2022-10-16T05:19:14;101038.19;;;12.93;100.00
25759;BME280;13604;52.496;13.456;2022-10-16T05:21:40;101042.72;;;12.91;100.00
25759;BME280;13604;52.496;13.456;2022-10-16T05:24:05;101047.00;;;12.92;100.00
25759;BME280;13604;52.496;13.456;2022-10-16T05:26:30;101044.47;;;12.91;100.00
25759;BME280;13604;52.496;13.456;2022-10-16T05:28:56;101046.34;;;12.89;100.00
25759;BME280;13604;52.496;13.456;2022-10-16T05:31:21;101040.38;;;12.87;100.00
25759;BME280;13604;52.496;13.456;2022-10-16T05:33:46;101047.47;;;12.85;100.00
25759;BME280;13604;52.496;13.456;2022-10-16T05:36:11;101040.47;;;12.85;100.00
25759;BME280;13604;52.496;13.456;2022-10-16T05:38:38;101037.13;;;12.83;100.00
25759;BME280;13604;52.496;13.456;2022-10-16T05:41:04;101039.03;;;12.81;100.00
25759;BME280;13604;52.496;13.456;2022-10-16T05:43:31;101048.63;;;12.81;100.00
25759;BME280;13604;52.496;13.456;2022-10-16T05:46:04;101051.88;;;12.84;100.00
25759;BME280;13604;52.496;13.456;2022-10-16T05:48:30;101054.09;;;12.90;100.00
25759;BME280;13604;52.496;13.456;2022-10-16T05:51:00;101066.00;;;12.94;100.00
25759;BME280;13604;52.496;13.456;2022-10-16T05:53:27;101057.88;;;12.99;100.00
25759;BME280;13604;52.496;13.456;2022-10-16T05:55:53;101058.53;;;13.02;100.00
25759;BME280;13604;52.496;13.456;2022-10-16T05:58:22;101062.91;;;13.02;100.00
25759;BME280;13604;52.496;13.456;2022-10-16T06:01:02;101060.72;;;13.08;100.00
25759;BME280;13604;52.496;13.456;2022-10-16T06:03:28;101065.09;;;13.08;100.00
25759;BME280;13604;52.496;13.456;2022-10-16T06:05:53;101054.31;;;13.00;100.00
25759;BME280;13604;52.496;13.456;2022-10-16T06:08:20;101060.72;;;13.08;100.00
25759;BME280;13604;52.496;13.456;2022-10-16T06:10:46;101068.66;;;13.07;100.00
25759;BME280;13604;52.496;13.456;2022-10-16T06:13:12;101064.75;;;13.14;100.00
25759;BME280;13604;52.496;13.456;2022-10-16T06:15:38;101075.44;;;13.24;100.00
25759;BME280;13604;52.496;13.456;2022-10-16T06:18:04;101072.38;;;13.30;100.00
25759;BME280;13604;52.496;13.456;2022-10-16T06:20:30;101070.72;;;13.41;100.00
25759;BME280;13604;52.496;13.456;2022-10-16T06:22:55;101077.22;;;13.48;100.00
25759;BME280;13604;52.496;13.456;2022-10-16T06:25:20;101080.66;;;13.49;100.00
25759;BME280;13604;52.496;13.456;2022-10-16T06:27:46;101085.06;;;13.48;100.00
25759;BME280;13604;52.496;13.456;2022-10-16T06:30:11;101072.72;;;13.51;100.00
25759;BME280;13604;52.496;13.456;2022-10-16T06:32:36;101071.78;;;13.52;100.00
25759;BME280;13604;52.496;13.456;2022-10-16T06:35:02;101084.66;;;13.55;100.00
25759;BME280;13604;52.496;13.456;2022-10-16T06:37:27;101089.34;;;13.62;100.00
25759;BME280;13604;52.496;13.456;2022-10-16T06:39:52;101094.06;;;13.70;100.00
25759;BME280;13604;52.496;13.456;2022-10-16T06:42:18;101100.22;;;13.81;100.00
25759;BME280;13604;52.496;13.456;2022-10-16T06:44:43;101106.75;;;13.89;100.00
25759;BME280;13604;52.496;13.456;2022-10-16T06:47:09;101112.72;;;13.91;100.00
25759;BME280;13604;52.496;13.456;2022-10-16T06:49:34;101120.97;;;13.97;100.00
25759;BME280;13604;52.496;13.456;2022-10-16T06:51:59;101108.19;;;13.93;100.00
25759;BME280;13604;52.496;13.456;2022-10-16T06:54:25;101119.41;;;13.95;100.00
25759;BME280;13604;52.496;13.456;2022-10-16T06:56:51;101122.44;;;14.01;100.00
25759;BME280;13604;52.496;13.456;2022-10-16T06:59:16;101123.78;;;14.07;100.00
25759;BME280;13604;52.496;13.456;2022-10-16T07:01:41;101117.31;;;14.12;100.00
25759;BME280;13604;52.496;13.456;2022-10-16T07:04:07;101126.50;;;14.18;100.00
25759;BME280;13604;52.496;13.456;2022-10-16T07:06:33;101120.09;;;14.35;100.00
25759;BME280;13604;52.496;13.456;2022-10-16T07:09:01;101126.56;;;14.54;100.00
25759;BME280;13604;52.496;13.456;2022-10-16T07:11:27;101131.81;;;14.78;100.00
25759;BME280;13604;52.496;13.456;2022-10-16T07:13:52;101131.97;;;15.12;100.00
25759;BME280;13604;52.496;13.456;2022-10-16T07:16:20;101148.31;;;15.50;100.00
25759;BME280;13604;52.496;13.456;2022-10-16T07:18:46;101146.50;;;15.86;100.00
25759;BME280;13604;52.496;13.456;2022-10-16T07:21:13;101146.03;;;16.03;100.00
25759;BME280;13604;52.496;13.456;2022-10-16T07:23:39;101148.81;;;16.01;100.00
25759;BME280;13604;52.496;13.456;2022-10-16T07:26:06;101139.81;;;16.04;100.00
25759;BME280;13604;52.496;13.456;2022-10-16T07:28:31;101154.88;;;16.13;100.00
25759;BME280;13604;52.496;13.456;2022-10-16T07:31:03;101149.88;;;16.21;100.00
25759;BME280;13604;52.496;13.456;2022-10-16T07:33:30;101157.16;;;16.40;100.00
25759;BME280;13604;52.496;13.456;2022-10-16T07:35:56;101154.97;;;16.56;100.00
25759;BME280;13604;52.496;13.456;2022-10-16T07:38:22;101138.22;;;16.57;100.00
25759;BME280;13604;52.496;13.456;2022-10-16T07:40:47;101141.13;;;16.43;100.00
25759;BME280;13604;52.496;13.456;2022-10-16T07:43:14;101153.34;;;16.33;100.00
25759;BME280;13604;52.496;13.456;2022-10-16T07:45:49;101147.81;;;16.25;100.00
25759;BME280;13604;52.496;13.456;2022-10-16T07:48:16;101161.22;;;16.22;100.00
25759;BME280;13604;52.496;13.456;2022-10-16T07:50:42;101148.66;;;16.14;100.00
25759;BME280;13604;52.496;13.456;2022-10-16T07:53:08;101145.06;;;16.26;100.00
25759;BME280;13604;52.496;13.456;2022-10-16T07:55:33;101150.44;;;16.25;100.00
25759;BME280;13604;52.496;13.456;2022-10-16T07:57:58;101147.34;;;16.31;100.00
25759;BME280;13604;52.496;13.456;2022-10-16T08:00:24;101155.84;;;16.23;100.00
25759;BME280;13604;52.496;13.456;2022-10-16T08:02:49;101145.81;;;16.28;100.00
25759;BME280;13604;52.496;13.456;2022-10-16T08:05:14;101155.84;;;16.34;100.00
25759;BME280;13604;52.496;13.456;2022-10-16T08:07:40;101159.78;;;16.40;100.00
25759;BME280;13604;52.496;13.456;2022-10-16T08:10:05;101158.47;;;16.34;100.00
25759;BME280;13604;52.496;13.456;2022-10-16T08:12:30;101178.41;;;16.48;100.00
25759;BME280;13604;52.496;13.456;2022-10-16T08:14:56;101190.47;;;16.51;100.00
25759;BME280;13604;52.496;13.456;2022-10-16T08:17:21;101195.97;;;16.48;100.00
25759;BME280;13604;52.496;13.456;2022-10-16T08:19:47;101194.91;;;16.28;100.00
25759;BME280;13604;52.496;13.456;2022-10-16T08:22:13;101185.34;;;16.27;100.00
25759;BME280;13604;52.496;13.456;2022-10-16T08:24:38;101191.31;;;16.40;100.00
25759;BME280;13604;52.496;13.456;2022-10-16T08:27:03;101180.91;;;16.50;100.00
25759;BME280;13604;52.496;13.456;2022-10-16T08:29:29;101186.28;;;16.70;100.00
25759;BME280;13604;52.496;13.456;2022-10-16T08:31:54;101180.56;;;16.77;100.00
25759;BME280;13604;52.496;13.456;2022-10-16T08:34:20;101181.69;;;16.95;100.00
25759;BME280;13604;52.496;13.456;2022-10-16T08:36:45;101182.44;;;16.86;100.00
25759;BME280;13604;52.496;13.456;2022-10-16T08:39:10;101184.91;;;17.09;100.00
25759;BME280;13604;52.496;13.456;2022-10-16T08:42:04;101196.13;;;17.12;100.00
25759;BME280;13604;52.496;13.456;2022-10-16T08:44:58;101195.59;;;17.29;100.00
25759;BME280;13604;52.496;13.456;2022-10-16T08:47:43;101185.59;;;17.43;100.00
25759;BME280;13604;52.496;13.456;2022-10-16T08:50:13;101190.94;;;17.21;100.00
25759;BME280;13604;52.496;13.456;2022-10-16T08:52:42;101196.25;;;17.10;100.00
25759;BME280;13604;52.496;13.456;2022-10-16T08:55:19;101189.19;;;17.10;100.00
25759;BME280;13604;52.496;13.456;2022-10-16T08:57:49;101198.63;;;17.13;100.00
25759;BME280;13604;52.496;13.456;2022-10-16T09:00:21;101191.47;;;17.04;100.00
25759;BME280;13604;52.496;13.456;2022-10-16T09:02:53;101203.06;;;17.01;100.00
25759;BME280;13604;52.496;13.456;2022-10-16T09:05:51;101214.41;;;17.13;100.00
25759;BME280;13604;52.496;13.456;2022-10-16T09:11:01;101213.88;;;18.34;100.00
25759;BME280;13604;52.496;13.456;2022-10-16T09:13:51;101214.00;;;19.13;100.00
25759;BME280;13604;52.496;13.456;2022-10-16T09:16:28;101212.63;;;19.67;100.00
25759;BME280;13604;52.496;13.456;2022-10-16T09:19:16;101234.31;;;19.41;99.78
25759;BME280;13604;52.496;13.456;2022-10-16T09:21:44;101243.94;;;19.33;100.00
25759;BME280;13604;52.496;13.456;2022-10-16T09:24:18;101239.31;;;19.15;100.00
25759;BME280;13604;52.496;13.456;2022-10-16T09:26:44;101227.78;;;19.16;100.00
25759;BME280;13604;52.496;13.456;2022-10-16T09:29:18;101222.25;;;19.48;100.00
25759;BME280;13604;52.496;13.456;2022-10-16T09:31:50;101215.81;;;19.80;97.74
25759;BME280;13604;52.496;13.456;2022-10-16T09:34:36;101224.31;;;20.77;91.23
25759;BME280;13604;52.496;13.456;2022-10-16T09:37:09;101223.56;;;21.02;87.99
25759;BME280;13604;52.496;13.456;2022-10-16T09:39:48;101228.28;;;21.08;87.13
25759;BME280;13604;52.496;13.456;2022-10-16T09:42:18;101232.47;;;20.56;88.83
25759;BME280;13604;52.496;13.456;2022-10-16T09:44:48;101230.53;;;21.30;86.31
25759;BME280;13604;52.496;13.456;2022-10-16T09:47:17;101239.41;;;22.26;78.66
25759;BME280;13604;52.496;13.456;2022-10-16T09:49:57;101231.16;;;23.38;72.61
25759;BME280;13604;52.496;13.456;2022-10-16T09:52:28;101244.69;;;22.52;74.21
25759;BME280;13604;52.496;13.456;2022-10-16T09:54:55;101249.22;;;21.64;77.63
25759;BME280;13604;52.496;13.456;2022-10-16T09:57:21;101258.84;;;21.02;82.16
25759;BME280;13604;52.496;13.456;2022-10-16T09:59:55;101265.50;;;20.79;84.46
25759;BME280;13604;52.496;13.456;2022-10-16T10:02:33;101262.84;;;20.52;84.70
25759;BME280;13604;52.496;13.456;2022-10-16T10:04:59;101257.25;;;21.19;83.18
25759;BME280;13604;52.496;13.456;2022-10-16T10:07:32;101254.06;;;22.72;76.63
25759;BME280;13604;52.496;13.456;2022-10-16T10:09:59;101268.47;;;23.12;69.34
25759;BME280;13604;52.496;13.456;2022-10-16T10:12:28;101263.53;;;22.75;70.67
25759;BME280;13604;52.496;13.456;2022-10-16T10:14:58;101279.38;;;22.59;71.29
25759;BME280;13604;52.496;13.456;2022-10-16T10:17:28;101274.84;;;22.17;71.84
25759;BME280;13604;52.496;13.456;2022-10-16T10:20:00;101285.25;;;21.75;75.55
25759;BME280;13604;52.496;13.456;2022-10-16T10:25:19;101271.22;;;20.84;80.49
25759;BME280;13604;52.496;13.456;2022-10-16T10:30:54;101272.78;;;20.40;83.66
25759;BME280;13604;52.496;13.456;2022-10-16T10:33:36;101275.97;;;20.34;84.46
25759;BME280;13604;52.496;13.456;2022-10-16T10:36:29;101287.22;;;20.83;83.24
25759;BME280;13604;52.496;13.456;2022-10-16T10:39:01;101283.88;;;21.35;79.39
25759;BME280;13604;52.496;13.456;2022-10-16T10:47:27;101291.78;;;22.24;75.41
25759;BME280;13604;52.496;13.456;2022-10-16T10:52:34;101285.03;;;24.13;60.54
25759;BME280;13604;52.496;13.456;2022-10-16T10:58:01;101285.09;;;23.14;63.32
25759;BME280;13604;52.496;13.456;2022-10-16T11:04:01;101280.13;;;24.57;59.76
25759;BME280;13604;52.496;13.456;2022-10-16T11:06:40;101282.47;;;24.99;57.15
25759;BME280;13604;52.496;13.456;2022-10-16T11:09:13;101282.06;;;25.64;53.39
25759;BME280;13604;52.496;13.456;2022-10-16T11:11:46;101279.94;;;27.93;47.72
25759;BME280;13604;52.496;13.456;2022-10-16T11:14:19;101296.41;;;28.46;42.91
25759;BME280;13604;52.496;13.456;2022-10-16T11:16:55;101282.03;;;27.98;42.20
25759;BME280;13604;52.496;13.456;2022-10-16T11:24:54;101297.72;;;24.66;51.54
25759;BME280;13604;52.496;13.456;2022-10-16T11:27:48;101299.66;;;24.33;53.29
25759;BME280;13604;52.496;13.456;2022-10-16T11:32:56;101294.75;;;23.31;55.77
25759;BME280;13604;52.496;13.456;2022-10-16T11:35:42;101293.97;;;23.31;56.49
25759;BME280;13604;52.496;13.456;2022-10-16T11:38:32;101283.91;;;23.75;54.51
25759;BME280;13604;52.496;13.456;2022-10-16T11:41:05;101292.91;;;25.09;51.67
25759;BME280;13604;52.496;13.456;2022-10-16T11:43:38;101286.69;;;26.45;47.76
25759;BME280;13604;52.496;13.456;2022-10-16T11:46:13;101286.06;;;27.44;42.93
25759;BME280;13604;52.496;13.456;2022-10-16T11:48:49;101281.31;;;27.04;42.33
25759;BME280;13604;52.496;13.456;2022-10-16T11:51:26;101283.41;;;28.15;40.29
25759;BME280;13604;52.496;13.456;2022-10-16T11:54:05;101277.34;;;28.06;39.30
25759;BME280;13604;52.496;13.456;2022-10-16T11:56:37;101288.16;;;26.77;41.37
25759;BME280;13604;52.496;13.456;2022-10-16T11:59:16;101297.75;;;25.67;44.40
25759;BME280;13604;52.496;13.456;2022-10-16T12:01:58;101291.34;;;24.83;47.01
25759;BME280;13604;52.496;13.456;2022-10-16T12:04:40;101293.91;;;24.68;46.49
25759;BME280;13604;52.496;13.456;2022-10-16T12:07:14;101304.50;;;24.05;47.63
25759;BME280;13604;52.496;13.456;2022-10-16T12:09:41;101298.84;;;23.51;48.84
25759;BME280;13604;52.496;13.456;2022-10-16T12:12:27;101324.19;;;23.38;50.66
25759;BME280;13604;52.496;13.456;2022-10-16T12:15:19;101316.13;;;23.64;50.16
25759;BME280;13604;52.496;13.456;2022-10-16T12:17:45;101318.22;;;24.74;47.97
25759;BME280;13604;52.496;13.456;2022-10-16T12:22:48;101314.41;;;28.93;35.37
25759;BME280;13604;52.496;13.456;2022-10-16T12:25:36;101317.13;;;29.93;33.01
25759;BME280;13604;52.496;13.456;2022-10-16T12:28:22;101318.56;;;31.06;31.83
25759;BME280;13604;52.496;13.456;2022-10-16T12:33:24;101308.00;;;32.85;28.83
25759;BME280;13604;52.496;13.456;2022-10-16T12:35:51;101311.31;;;33.36;27.54
25759;BME280;13604;52.496;13.456;2022-10-16T12:38:25;101313.19;;;34.47;25.83
25759;BME280;13604;52.496;13.456;2022-10-16T12:41:09;101318.41;;;33.60;26.40
25759;BME280;13604;52.496;13.456;2022-10-16T12:43:42;101310.13;;;35.35;25.79
25759;BME280;13604;52.496;13.456;2022-10-16T12:48:33;101307.13;;;32.73;26.68
25759;BME280;13604;52.496;13.456;2022-10-16T12:51:21;101325.25;;;33.03;27.00
25759;BME280;13604;52.496;13.456;2022-10-16T12:54:01;101328.44;;;33.11;26.64
25759;BME280;13604;52.496;13.456;2022-10-16T12:56:39;101319.75;;;33.81;25.87
25759;BME280;13604;52.496;13.456;2022-10-16T13:07:56;101339.69;;;33.68;25.39
25759;BME280;13604;52.496;13.456;2022-10-16T13:10:40;101320.28;;;33.00;25.67
25759;BME280;13604;52.496;13.456;2022-10-16T13:13:36;101329.16;;;33.18;25.26
25759;BME280;13604;52.496;13.456;2022-10-16T13:21:46;101352.50;;;35.41;22.89
25759;BME280;13604;52.496;13.456;2022-10-16T13:24:39;101361.06;;;34.11;24.49
25759;BME280;13604;52.496;13.456;2022-10-16T13:27:15;101353.81;;;33.40;25.19
25759;BME280;13604;52.496;13.456;2022-10-16T13:29:44;101362.00;;;32.42;27.08
25759;BME280;13604;52.496;13.456;2022-10-16T13:32:11;101360.16;;;31.87;27.64
25759;BME280;13604;52.496;13.456;2022-10-16T13:34:47;101359.28;;;30.39;30.54
25759;BME280;13604;52.496;13.456;2022-10-16T13:37:17;101371.94;;;28.62;33.14
25759;BME280;13604;52.496;13.456;2022-10-16T13:39:43;101372.66;;;26.78;36.72
25759;BME280;13604;52.496;13.456;2022-10-16T13:42:22;101373.78;;;26.98;36.41
25759;BME280;13604;52.496;13.456;2022-10-16T13:44:52;101375.84;;;28.25;34.43
25759;BME280;13604;52.496;13.456;2022-10-16T13:47:21;101367.53;;;30.64;31.50
25759;BME280;13604;52.496;13.456;2022-10-16T13:49:48;101362.91;;;32.36;27.90